PWSweather.com
Personal Weather Stations
Station Observations
ANTHEMNP
Anthem North Parkside, Anthem, AZ 85086

Anthem North ParksideAnthem, AZ 85086

Lat: 33.876464, Lon: -112.13861199999997

Elevation: 1930

Station Type: Davis Vantage Vue with Pro 2 console

http://www.azjerry.com/ANPW/wxindex.php

High Low Average
Temperature 98.7°F37.1°C 73.6°F23.1°C 89.4°F31.9°C
Dew Point 71.0°F21.7°C 58.0°F14.4°C 64.0°F17.8°C
Winds 5.1 mph 8.2 kmh Calm Calm 2.0 mph SSE3.2 kmh SSE
Wind Gusts 13.0 mph20.9 kmh -- 6.0 mph9.7 kmh
Humidity 88% 31% 45%
Pressure 30.02 in1016.6 mb 29.81 in1009.5 mb -
Precipitation 0.14 in3.6 mm - -
Hour Temp Dew Point Humidity Winds Wind Gusts Pressure Precip Precip Rate Daily Precip Total
12:00 AM 91.8°F33.2°C 58.0°F14.4°C 32% 3.5 mph NE5.6 kmh NE 8.0 mph12.9 kmh 29.84 in1010.5 mb 0.00 in0.0 mm 0.00 in0.0 mm 0.00 in0.0 mm
01:30 AM 89.9°F32.2°C 58.0°F14.4°C 34% 1.1 mph NNE1.8 kmh NNE 2.0 mph3.2 kmh 29.84 in1010.5 mb 0.00 in0.0 mm 0.00 in0.0 mm 0.00 in0.0 mm
01:40 AM 89.8°F32.1°C 58.0°F14.4°C 34% 1.4 mph NNE2.3 kmh NNE 3.0 mph4.8 kmh 29.84 in1010.5 mb 0.00 in0.0 mm 0.00 in0.0 mm 0.00 in0.0 mm
01:50 AM 89.8°F32.1°C 59.0°F15.0°C 35% 0.9 mph NNE1.4 kmh NNE 2.0 mph3.2 kmh 29.84 in1010.5 mb 0.00 in0.0 mm 0.00 in0.0 mm 0.00 in0.0 mm
02:00 AM 89.5°F31.9°C 58.0°F14.4°C 35% 0.1 mph NNE0.2 kmh NNE -- 29.84 in1010.5 mb 0.00 in0.0 mm 0.00 in0.0 mm 0.00 in0.0 mm
02:10 AM 89.3°F31.8°C 59.0°F15.0°C 36% Calm Calm 1.0 mph1.6 kmh 29.84 in1010.5 mb 0.00 in0.0 mm 0.00 in0.0 mm 0.00 in0.0 mm
02:20 AM 89.3°F31.8°C 58.0°F14.4°C 35% Calm Calm -- 29.84 in1010.5 mb 0.00 in0.0 mm 0.00 in0.0 mm 0.00 in0.0 mm
02:30 AM 89.2°F31.8°C 59.0°F15.0°C 36% Calm Calm 1.0 mph1.6 kmh 29.84 in1010.5 mb 0.00 in0.0 mm 0.00 in0.0 mm 0.00 in0.0 mm
02:40 AM 89.0°F31.7°C 58.0°F14.4°C 35% Calm Calm -- 29.84 in1010.5 mb 0.00 in0.0 mm 0.00 in0.0 mm 0.00 in0.0 mm
02:50 AM 88.8°F31.6°C 59.0°F15.0°C 36% Calm Calm -- 29.84 in1010.5 mb 0.00 in0.0 mm 0.00 in0.0 mm 0.00 in0.0 mm
03:00 AM 88.5°F31.4°C 58.0°F14.4°C 36% Calm Calm -- 29.84 in1010.5 mb 0.00 in0.0 mm 0.00 in0.0 mm 0.00 in0.0 mm
03:10 AM 88.5°F31.4°C 59.0°F15.0°C 37% 0.2 mph SE0.3 kmh SE 1.0 mph1.6 kmh 29.84 in1010.5 mb 0.00 in0.0 mm 0.00 in0.0 mm 0.00 in0.0 mm
03:20 AM 89.3°F31.8°C 60.0°F15.6°C 37% 1.8 mph SE2.9 kmh SE 5.0 mph8.0 kmh 29.84 in1010.5 mb 0.00 in0.0 mm 0.00 in0.0 mm 0.00 in0.0 mm
03:30 AM 89.4°F31.9°C 60.0°F15.6°C 37% 1.0 mph SE1.6 kmh SE 4.0 mph6.4 kmh 29.84 in1010.5 mb 0.00 in0.0 mm 0.00 in0.0 mm 0.00 in0.0 mm
03:40 AM 87.3°F30.7°C 59.0°F15.0°C 38% 1.5 mph SE2.4 kmh SE 6.0 mph9.7 kmh 29.84 in1010.5 mb 0.00 in0.0 mm 0.00 in0.0 mm 0.00 in0.0 mm
03:50 AM 85.6°F29.8°C 67.0°F19.4°C 54% 1.0 mph ESE1.6 kmh ESE 5.0 mph8.0 kmh 29.84 in1010.5 mb 0.00 in0.0 mm 0.00 in0.0 mm 0.00 in0.0 mm
04:00 AM 83.6°F28.7°C 68.0°F20.0°C 59% 0.4 mph S0.6 kmh S 4.0 mph6.4 kmh 29.84 in1010.5 mb 0.00 in0.0 mm 0.00 in0.0 mm 0.00 in0.0 mm
04:10 AM 83.2°F28.4°C 66.0°F18.9°C 57% 0.6 mph SE1.0 kmh SE 3.0 mph4.8 kmh 29.84 in1010.5 mb 0.00 in0.0 mm 0.00 in0.0 mm 0.00 in0.0 mm
04:20 AM 83.6°F28.7°C 67.0°F19.4°C 57% 0.6 mph ESE1.0 kmh ESE 4.0 mph6.4 kmh 29.84 in1010.5 mb 0.00 in0.0 mm 0.00 in0.0 mm 0.00 in0.0 mm
04:30 AM 83.3°F28.5°C 67.0°F19.4°C 59% 1.0 mph S1.6 kmh S 5.0 mph8.0 kmh 29.84 in1010.5 mb 0.00 in0.0 mm 0.00 in0.0 mm 0.01 in0.3 mm
04:40 AM 84.0°F28.9°C 67.0°F19.4°C 56% 1.6 mph SE2.6 kmh SE 7.0 mph11.3 kmh 29.84 in1010.5 mb 0.00 in0.0 mm 0.00 in0.0 mm 0.01 in0.3 mm
04:50 AM 84.2°F29.0°C 66.0°F18.9°C 54% 2.6 mph SE4.2 kmh SE 8.0 mph12.9 kmh 29.84 in1010.5 mb 0.00 in0.0 mm 0.00 in0.0 mm 0.01 in0.3 mm
05:00 AM 84.2°F29.0°C 66.0°F18.9°C 54% 3.1 mph S5.0 kmh S 8.0 mph12.9 kmh 29.84 in1010.5 mb 0.00 in0.0 mm 0.00 in0.0 mm 0.01 in0.3 mm
05:10 AM 84.2°F29.0°C 65.0°F18.3°C 53% 2.4 mph SSW3.9 kmh SSW 5.0 mph8.0 kmh 29.84 in1010.5 mb 0.00 in0.0 mm 0.00 in0.0 mm 0.01 in0.3 mm
05:20 AM 84.1°F28.9°C 65.0°F18.3°C 53% 3.1 mph S5.0 kmh S 6.0 mph9.7 kmh 29.84 in1010.5 mb 0.00 in0.0 mm 0.00 in0.0 mm 0.01 in0.3 mm
05:30 AM 84.1°F28.9°C 65.0°F18.3°C 53% 3.2 mph SSW5.1 kmh SSW 9.0 mph14.5 kmh 29.84 in1010.5 mb 0.00 in0.0 mm 0.00 in0.0 mm 0.01 in0.3 mm
05:40 AM 84.1°F28.9°C 66.0°F18.9°C 54% 4.0 mph SE6.4 kmh SE 13.0 mph20.9 kmh 29.84 in1010.5 mb 0.00 in0.0 mm 0.00 in0.0 mm 0.01 in0.3 mm
05:50 AM 83.1°F28.4°C 66.0°F18.9°C 56% 4.7 mph SW7.6 kmh SW 11.0 mph17.7 kmh 29.84 in1010.5 mb 0.00 in0.0 mm 0.00 in0.0 mm 0.01 in0.3 mm
06:00 AM 82.2°F27.9°C 66.0°F18.9°C 59% 5.0 mph SSE8.0 kmh SSE 10.0 mph16.1 kmh 29.84 in1010.5 mb 0.00 in0.0 mm 0.00 in0.0 mm 0.01 in0.3 mm
06:10 AM 81.0°F27.2°C 66.0°F18.9°C 61% 4.6 mph SE7.4 kmh SE 10.0 mph16.1 kmh 29.84 in1010.5 mb 0.00 in0.0 mm 0.00 in0.0 mm 0.01 in0.3 mm
06:20 AM 79.4°F26.3°C 67.0°F19.4°C 65% 5.1 mph SE8.2 kmh SE 11.0 mph17.7 kmh 29.84 in1010.5 mb 0.00 in0.0 mm 0.00 in0.0 mm 0.01 in0.3 mm
06:30 AM 78.0°F25.6°C 65.0°F18.3°C 65% 4.7 mph SSE7.6 kmh SSE 10.0 mph16.1 kmh 29.84 in1010.5 mb 0.00 in0.0 mm 0.00 in0.0 mm 0.01 in0.3 mm
06:40 AM 76.5°F24.7°C 66.0°F18.9°C 70% 3.7 mph SE6.0 kmh SE 11.0 mph17.7 kmh 29.84 in1010.5 mb 0.00 in0.0 mm 0.00 in0.0 mm 0.01 in0.3 mm
06:50 AM 75.9°F24.4°C 67.0°F19.4°C 73% 2.4 mph SSE3.9 kmh SSE 5.0 mph8.0 kmh 29.84 in1010.5 mb 0.00 in0.0 mm 0.00 in0.0 mm 0.01 in0.3 mm
07:00 AM 75.5°F24.2°C 67.0°F19.4°C 76% 0.2 mph SE0.3 kmh SE 2.0 mph3.2 kmh 29.84 in1010.5 mb 0.00 in0.0 mm 0.00 in0.0 mm 0.01 in0.3 mm
07:10 AM 75.4°F24.1°C 69.0°F20.6°C 79% 0.6 mph SE1.0 kmh SE 2.0 mph3.2 kmh 29.84 in1010.5 mb 0.00 in0.0 mm 0.00 in0.0 mm 0.02 in0.5 mm
07:20 AM 74.8°F23.8°C 69.0°F20.6°C 82% Calm Calm 2.0 mph3.2 kmh 29.84 in1010.5 mb 0.15 in3.8 mm 0.90 in22.9 mm 0.08 in2.0 mm
07:30 AM 74.2°F23.4°C 70.0°F21.1°C 85% Calm Calm 1.0 mph1.6 kmh 29.84 in1010.5 mb 0.13 in3.3 mm 0.00 in0.0 mm 0.10 in2.5 mm
07:40 AM 73.8°F23.2°C 69.0°F20.6°C 85% 0.1 mph NNE0.2 kmh NNE 1.0 mph1.6 kmh 29.84 in1010.5 mb 0.12 in3.0 mm 0.00 in0.0 mm 0.11 in2.8 mm
07:50 AM 73.7°F23.2°C 69.0°F20.6°C 86% 0.3 mph NNE0.5 kmh NNE 2.0 mph3.2 kmh 29.84 in1010.5 mb 0.08 in2.0 mm 0.00 in0.0 mm 0.13 in3.3 mm
08:00 AM 73.7°F23.2°C 70.0°F21.1°C 88% 0.1 mph N0.2 kmh N 2.0 mph3.2 kmh 29.84 in1010.5 mb 0.07 in1.8 mm 0.00 in0.0 mm 0.14 in3.6 mm
08:10 AM 73.6°F23.1°C 70.0°F21.1°C 88% 0.6 mph NNE1.0 kmh NNE 3.0 mph4.8 kmh 29.84 in1010.5 mb 0.04 in1.0 mm 0.00 in0.0 mm 0.14 in3.6 mm
08:20 AM 73.8°F23.2°C 70.0°F21.1°C 88% 1.7 mph NNE2.7 kmh NNE 5.0 mph8.0 kmh 29.84 in1010.5 mb 0.00 in0.0 mm 0.00 in0.0 mm 0.14 in3.6 mm
08:30 AM 74.2°F23.4°C 70.0°F21.1°C 87% 1.1 mph NE1.8 kmh NE 4.0 mph6.4 kmh 29.84 in1010.5 mb 0.00 in0.0 mm 0.00 in0.0 mm 0.14 in3.6 mm
08:40 AM 74.9°F23.8°C 70.0°F21.1°C 85% 2.6 mph NNW4.2 kmh NNW 7.0 mph11.3 kmh 29.84 in1010.5 mb 0.00 in0.0 mm 0.00 in0.0 mm 0.14 in3.6 mm
08:50 AM 75.2°F24.0°C 70.0°F21.1°C 83% 3.0 mph NE4.8 kmh NE 6.0 mph9.7 kmh 29.84 in1010.5 mb 0.00 in0.0 mm 0.00 in0.0 mm 0.14 in3.6 mm
09:10 AM 76.6°F24.8°C 70.0°F21.1°C 80% 2.9 mph NE4.7 kmh NE 7.0 mph11.3 kmh 29.84 in1010.5 mb 0.00 in0.0 mm 0.00 in0.0 mm 0.14 in3.6 mm
09:20 AM 77.8°F25.4°C 70.0°F21.1°C 76% 3.0 mph N4.8 kmh N 5.0 mph8.0 kmh 29.84 in1010.5 mb 0.00 in0.0 mm 0.00 in0.0 mm 0.14 in3.6 mm
09:30 AM 79.5°F26.4°C 70.0°F21.1°C 72% 2.9 mph N4.7 kmh N 5.0 mph8.0 kmh 29.84 in1010.5 mb 0.00 in0.0 mm 0.00 in0.0 mm 0.14 in3.6 mm
09:40 AM 81.7°F27.6°C 70.0°F21.1°C 67% 3.0 mph ENE4.8 kmh ENE 8.0 mph12.9 kmh 29.84 in1010.5 mb 0.00 in0.0 mm 0.00 in0.0 mm 0.14 in3.6 mm
10:10 AM 83.6°F28.7°C 71.0°F21.7°C 65% 4.0 mph NNE6.4 kmh NNE 9.0 mph14.5 kmh 30.02 in1016.6 mb 0.00 in0.0 mm 0.00 in0.0 mm 0.15 in3.8 mm
10:20 AM 83.6°F28.7°C 70.0°F21.1°C 64% 3.8 mph NE6.1 kmh NE 9.0 mph14.5 kmh 30.02 in1016.6 mb 0.00 in0.0 mm 0.00 in0.0 mm 0.15 in3.8 mm
10:30 AM 85.1°F29.5°C 70.0°F21.1°C 61% 3.1 mph N5.0 kmh N 9.0 mph14.5 kmh 30.02 in1016.6 mb 0.00 in0.0 mm 0.00 in0.0 mm 0.15 in3.8 mm
10:40 AM 86.3°F30.2°C 70.0°F21.1°C 59% 3.1 mph NE5.0 kmh NE 7.0 mph11.3 kmh 30.01 in1016.3 mb 0.00 in0.0 mm 0.00 in0.0 mm 0.15 in3.8 mm
10:50 AM 87.8°F31.0°C 69.0°F20.6°C 54% 2.8 mph N4.5 kmh N 7.0 mph11.3 kmh 30.01 in1016.3 mb 0.00 in0.0 mm 0.00 in0.0 mm 0.15 in3.8 mm
11:00 AM 89.1°F31.7°C 69.0°F20.6°C 51% 3.2 mph NNE5.1 kmh NNE 9.0 mph14.5 kmh 30.00 in1015.9 mb 0.00 in0.0 mm 0.00 in0.0 mm 0.15 in3.8 mm
11:10 AM 89.6°F32.0°C 67.0°F19.4°C 48% 2.2 mph NNE3.5 kmh NNE 9.0 mph14.5 kmh 30.00 in1015.9 mb 0.00 in0.0 mm 0.00 in0.0 mm 0.15 in3.8 mm
11:20 AM 90.4°F32.4°C 67.0°F19.4°C 46% 2.4 mph NW3.9 kmh NW 10.0 mph16.1 kmh 29.99 in1015.6 mb 0.00 in0.0 mm 0.00 in0.0 mm 0.15 in3.8 mm
11:30 AM 91.1°F32.8°C 66.0°F18.9°C 43% 1.9 mph SSE3.1 kmh SSE 7.0 mph11.3 kmh 29.99 in1015.6 mb 0.00 in0.0 mm 0.00 in0.0 mm 0.15 in3.8 mm
11:40 AM 91.4°F33.0°C 65.0°F18.3°C 42% 2.4 mph NW3.9 kmh NW 8.0 mph12.9 kmh 29.98 in1015.2 mb 0.00 in0.0 mm 0.00 in0.0 mm 0.15 in3.8 mm
11:50 AM 92.6°F33.7°C 66.0°F18.9°C 41% 1.0 mph NNE1.6 kmh NNE 7.0 mph11.3 kmh 29.97 in1014.9 mb 0.00 in0.0 mm 0.00 in0.0 mm 0.15 in3.8 mm
12:00 PM 93.6°F34.2°C 66.0°F18.9°C 40% 0.8 mph NNE1.3 kmh NNE 5.0 mph8.0 kmh 29.96 in1014.6 mb 0.00 in0.0 mm 0.00 in0.0 mm 0.15 in3.8 mm
12:10 PM 93.7°F34.3°C 66.0°F18.9°C 40% 1.0 mph SW1.6 kmh SW 4.0 mph6.4 kmh 29.95 in1014.2 mb 0.00 in0.0 mm 0.00 in0.0 mm 0.15 in3.8 mm
12:20 PM 95.3°F35.2°C 67.0°F19.4°C 39% 1.2 mph NNW1.9 kmh NNW 6.0 mph9.7 kmh 29.95 in1014.2 mb 0.00 in0.0 mm 0.00 in0.0 mm 0.15 in3.8 mm
12:30 PM 94.2°F34.6°C 66.0°F18.9°C 39% 2.3 mph SW3.7 kmh SW 6.0 mph9.7 kmh 29.94 in1013.9 mb 0.00 in0.0 mm 0.00 in0.0 mm 0.15 in3.8 mm
12:40 PM 95.3°F35.2°C 66.0°F18.9°C 38% 1.5 mph SSW2.4 kmh SSW 5.0 mph8.0 kmh 29.94 in1013.9 mb 0.00 in0.0 mm 0.00 in0.0 mm 0.15 in3.8 mm
12:50 PM 95.9°F35.5°C 66.0°F18.9°C 38% 1.7 mph SSW2.7 kmh SSW 5.0 mph8.0 kmh 29.93 in1013.5 mb 0.00 in0.0 mm 0.00 in0.0 mm 0.15 in3.8 mm
01:00 PM 96.9°F36.1°C 67.0°F19.4°C 37% 0.9 mph S1.4 kmh S 5.0 mph8.0 kmh 29.93 in1013.5 mb 0.00 in0.0 mm 0.00 in0.0 mm 0.15 in3.8 mm
01:10 PM 97.2°F36.2°C 66.0°F18.9°C 36% 1.3 mph SW2.1 kmh SW 7.0 mph11.3 kmh 29.92 in1013.2 mb 0.00 in0.0 mm 0.00 in0.0 mm 0.15 in3.8 mm
01:20 PM 97.7°F36.5°C 67.0°F19.4°C 36% 1.5 mph SSW2.4 kmh SSW 7.0 mph11.3 kmh 29.92 in1013.2 mb 0.00 in0.0 mm 0.00 in0.0 mm 0.15 in3.8 mm
01:30 PM 97.7°F36.5°C 66.0°F18.9°C 35% 2.9 mph SSW4.7 kmh SSW 7.0 mph11.3 kmh 29.91 in1012.9 mb 0.00 in0.0 mm 0.00 in0.0 mm 0.15 in3.8 mm
01:40 PM 96.9°F36.1°C 67.0°F19.4°C 37% 3.7 mph S6.0 kmh S 10.0 mph16.1 kmh 29.91 in1012.9 mb 0.00 in0.0 mm 0.00 in0.0 mm 0.15 in3.8 mm
01:50 PM 95.9°F35.5°C 66.0°F18.9°C 37% 5.1 mph SW8.2 kmh SW 10.0 mph16.1 kmh 29.90 in1012.5 mb 0.00 in0.0 mm 0.00 in0.0 mm 0.15 in3.8 mm
02:00 PM 96.9°F36.1°C 66.0°F18.9°C 36% 2.7 mph SSW4.3 kmh SSW 8.0 mph12.9 kmh 29.90 in1012.5 mb 0.00 in0.0 mm 0.00 in0.0 mm 0.15 in3.8 mm
02:10 PM 96.8°F36.0°C 66.0°F18.9°C 36% 3.1 mph SSE5.0 kmh SSE 10.0 mph16.1 kmh 29.89 in1012.2 mb 0.00 in0.0 mm 0.00 in0.0 mm 0.15 in3.8 mm
02:20 PM 97.1°F36.2°C 66.0°F18.9°C 36% 1.8 mph SSW2.9 kmh SSW 9.0 mph14.5 kmh 29.89 in1012.2 mb 0.00 in0.0 mm 0.00 in0.0 mm 0.15 in3.8 mm
02:30 PM 97.6°F36.4°C 65.0°F18.3°C 34% 2.5 mph NW4.0 kmh NW 9.0 mph14.5 kmh 29.88 in1011.9 mb 0.00 in0.0 mm 0.00 in0.0 mm 0.15 in3.8 mm
02:40 PM 98.6°F37.0°C 65.0°F18.3°C 33% 1.7 mph E2.7 kmh E 8.0 mph12.9 kmh 29.88 in1011.9 mb 0.00 in0.0 mm 0.00 in0.0 mm 0.15 in3.8 mm
02:50 PM 97.6°F36.4°C 64.0°F17.8°C 33% 2.9 mph NNE4.7 kmh NNE 7.0 mph11.3 kmh 29.87 in1011.5 mb 0.00 in0.0 mm 0.00 in0.0 mm 0.15 in3.8 mm
03:00 PM 97.8°F36.6°C 64.0°F17.8°C 33% 3.3 mph SSW5.3 kmh SSW 10.0 mph16.1 kmh 29.87 in1011.5 mb 0.00 in0.0 mm 0.00 in0.0 mm 0.15 in3.8 mm
03:10 PM 98.2°F36.8°C 65.0°F18.3°C 33% 3.6 mph SW5.8 kmh SW 9.0 mph14.5 kmh 29.86 in1011.2 mb 0.00 in0.0 mm 0.00 in0.0 mm 0.15 in3.8 mm
03:20 PM 98.1°F36.7°C 64.0°F17.8°C 33% 3.9 mph S6.3 kmh S 9.0 mph14.5 kmh 29.86 in1011.2 mb 0.00 in0.0 mm 0.00 in0.0 mm 0.15 in3.8 mm
03:30 PM 98.1°F36.7°C 64.0°F17.8°C 32% 3.8 mph S6.1 kmh S 10.0 mph16.1 kmh 29.85 in1010.8 mb 0.00 in0.0 mm 0.00 in0.0 mm 0.15 in3.8 mm
03:40 PM 98.2°F36.8°C 63.0°F17.2°C 31% 3.8 mph SW6.1 kmh SW 11.0 mph17.7 kmh 29.85 in1010.8 mb 0.00 in0.0 mm 0.00 in0.0 mm 0.15 in3.8 mm
03:50 PM 98.7°F37.1°C 64.0°F17.8°C 32% 2.4 mph S3.9 kmh S 8.0 mph12.9 kmh 29.85 in1010.8 mb 0.00 in0.0 mm 0.00 in0.0 mm 0.15 in3.8 mm
04:00 PM 98.7°F37.1°C 64.0°F17.8°C 32% 2.9 mph S4.7 kmh S 9.0 mph14.5 kmh 29.84 in1010.5 mb 0.00 in0.0 mm 0.00 in0.0 mm 0.15 in3.8 mm
04:10 PM 97.6°F36.4°C 63.0°F17.2°C 32% 4.2 mph SW6.8 kmh SW 9.0 mph14.5 kmh 29.84 in1010.5 mb 0.00 in0.0 mm 0.00 in0.0 mm 0.15 in3.8 mm
04:20 PM 98.3°F36.8°C 64.0°F17.8°C 32% 1.7 mph SW2.7 kmh SW 5.0 mph8.0 kmh 29.84 in1010.5 mb 0.00 in0.0 mm 0.00 in0.0 mm 0.15 in3.8 mm
04:30 PM 97.7°F36.5°C 63.0°F17.2°C 32% 2.8 mph SW4.5 kmh SW 7.0 mph11.3 kmh 29.83 in1010.2 mb 0.00 in0.0 mm 0.00 in0.0 mm 0.15 in3.8 mm
04:40 PM 97.9°F36.6°C 63.0°F17.2°C 32% 3.2 mph SW5.1 kmh SW 8.0 mph12.9 kmh 29.83 in1010.2 mb 0.00 in0.0 mm 0.00 in0.0 mm 0.15 in3.8 mm
04:50 PM 97.5°F36.4°C 62.0°F16.7°C 31% 2.6 mph SW4.2 kmh SW 8.0 mph12.9 kmh 29.83 in1010.2 mb 0.00 in0.0 mm 0.00 in0.0 mm 0.15 in3.8 mm
05:00 PM 97.4°F36.3°C 62.0°F16.7°C 31% 2.3 mph S3.7 kmh S 8.0 mph12.9 kmh 29.83 in1010.2 mb 0.00 in0.0 mm 0.00 in0.0 mm 0.15 in3.8 mm
05:10 PM 97.9°F36.6°C 63.0°F17.2°C 31% 1.3 mph SSW2.1 kmh SSW 5.0 mph8.0 kmh 29.83 in1010.2 mb 0.00 in0.0 mm 0.00 in0.0 mm 0.15 in3.8 mm
05:20 PM 97.1°F36.2°C 63.0°F17.2°C 32% 2.8 mph SSW4.5 kmh SSW 9.0 mph14.5 kmh 29.82 in1009.8 mb 0.00 in0.0 mm 0.00 in0.0 mm 0.15 in3.8 mm
05:30 PM 96.9°F36.1°C 62.0°F16.7°C 31% 1.4 mph SSW2.3 kmh SSW 4.0 mph6.4 kmh 29.82 in1009.8 mb 0.00 in0.0 mm 0.00 in0.0 mm 0.15 in3.8 mm
05:40 PM 97.4°F36.3°C 62.0°F16.7°C 31% 1.6 mph SSW2.6 kmh SSW 7.0 mph11.3 kmh 29.82 in1009.8 mb 0.00 in0.0 mm 0.00 in0.0 mm 0.15 in3.8 mm
05:50 PM 97.6°F36.4°C 62.0°F16.7°C 31% 1.6 mph S2.6 kmh S 11.0 mph17.7 kmh 29.81 in1009.5 mb 0.00 in0.0 mm 0.00 in0.0 mm 0.15 in3.8 mm
06:00 PM 96.8°F36.0°C 62.0°F16.7°C 32% 3.6 mph SE5.8 kmh SE 8.0 mph12.9 kmh 29.82 in1009.8 mb 0.00 in0.0 mm 0.00 in0.0 mm 0.15 in3.8 mm
06:10 PM 96.8°F36.0°C 63.0°F17.2°C 33% 2.6 mph S4.2 kmh S 7.0 mph11.3 kmh 29.82 in1009.8 mb 0.00 in0.0 mm 0.00 in0.0 mm 0.15 in3.8 mm
06:20 PM 96.6°F35.9°C 63.0°F17.2°C 33% 2.3 mph SSW3.7 kmh SSW 10.0 mph16.1 kmh 29.82 in1009.8 mb 0.00 in0.0 mm 0.00 in0.0 mm 0.15 in3.8 mm
06:30 PM 96.3°F35.7°C 63.0°F17.2°C 33% 2.5 mph SSW4.0 kmh SSW 6.0 mph9.7 kmh 29.82 in1009.8 mb 0.00 in0.0 mm 0.00 in0.0 mm 0.15 in3.8 mm
06:40 PM 95.9°F35.5°C 62.0°F16.7°C 32% 3.6 mph SW5.8 kmh SW 8.0 mph12.9 kmh 29.83 in1010.2 mb 0.00 in0.0 mm 0.00 in0.0 mm 0.15 in3.8 mm
06:50 PM 95.8°F35.4°C 62.0°F16.7°C 33% 3.2 mph SW5.1 kmh SW 7.0 mph11.3 kmh 29.83 in1010.2 mb 0.00 in0.0 mm 0.00 in0.0 mm 0.15 in3.8 mm
07:00 PM 95.5°F35.3°C 62.0°F16.7°C 33% 2.7 mph S4.3 kmh S 7.0 mph11.3 kmh 29.84 in1010.5 mb 0.00 in0.0 mm 0.00 in0.0 mm 0.15 in3.8 mm
07:10 PM 95.3°F35.2°C 61.0°F16.1°C 32% 2.9 mph SSW4.7 kmh SSW 8.0 mph12.9 kmh 29.84 in1010.5 mb 0.00 in0.0 mm 0.00 in0.0 mm 0.15 in3.8 mm
07:20 PM 95.2°F35.1°C 60.0°F15.6°C 31% 2.6 mph SSW4.2 kmh SSW 6.0 mph9.7 kmh 29.85 in1010.8 mb 0.00 in0.0 mm 0.00 in0.0 mm 0.15 in3.8 mm
07:30 PM 94.8°F34.9°C 60.0°F15.6°C 31% 2.3 mph SW3.7 kmh SW 6.0 mph9.7 kmh 29.85 in1010.8 mb 0.00 in0.0 mm 0.00 in0.0 mm 0.15 in3.8 mm
07:40 PM 94.4°F34.7°C 59.0°F15.0°C 31% 2.3 mph SSW3.7 kmh SSW 8.0 mph12.9 kmh 29.86 in1011.2 mb 0.00 in0.0 mm 0.00 in0.0 mm 0.15 in3.8 mm
07:50 PM 94.0°F34.4°C 59.0°F15.0°C 31% 2.6 mph SW4.2 kmh SW 7.0 mph11.3 kmh 29.86 in1011.2 mb 0.00 in0.0 mm 0.00 in0.0 mm 0.15 in3.8 mm
08:00 PM 93.6°F34.2°C 59.0°F15.0°C 31% 2.2 mph SSW3.5 kmh SSW 5.0 mph8.0 kmh 29.85 in1010.8 mb 0.00 in0.0 mm 0.00 in0.0 mm 0.15 in3.8 mm
08:10 PM 93.2°F34.0°C 59.0°F15.0°C 32% 2.0 mph SSW3.2 kmh SSW 5.0 mph8.0 kmh 29.84 in1010.5 mb 0.00 in0.0 mm 0.00 in0.0 mm 0.15 in3.8 mm
08:20 PM 92.8°F33.8°C 60.0°F15.6°C 33% 0.7 mph S1.1 kmh S 4.0 mph6.4 kmh 29.85 in1010.8 mb 0.00 in0.0 mm 0.00 in0.0 mm 0.15 in3.8 mm
08:30 PM 92.6°F33.7°C 60.0°F15.6°C 33% 0.4 mph SSW0.6 kmh SSW 3.0 mph4.8 kmh 29.86 in1011.2 mb 0.00 in0.0 mm 0.00 in0.0 mm 0.15 in3.8 mm
08:40 PM 92.5°F33.6°C 59.0°F15.0°C 33% 1.1 mph SSW1.8 kmh SSW 3.0 mph4.8 kmh 29.87 in1011.5 mb 0.00 in0.0 mm 0.00 in0.0 mm 0.15 in3.8 mm
08:50 PM 92.2°F33.4°C 60.0°F15.6°C 34% 0.6 mph S1.0 kmh S 3.0 mph4.8 kmh 29.87 in1011.5 mb 0.00 in0.0 mm 0.00 in0.0 mm 0.15 in3.8 mm
09:00 PM 91.9°F33.3°C 60.0°F15.6°C 34% 0.5 mph SW0.8 kmh SW 2.0 mph3.2 kmh 29.87 in1011.5 mb 0.00 in0.0 mm 0.00 in0.0 mm 0.15 in3.8 mm
09:10 PM 91.9°F33.3°C 60.0°F15.6°C 34% 0.5 mph SW0.8 kmh SW 3.0 mph4.8 kmh 29.87 in1011.5 mb 0.00 in0.0 mm 0.00 in0.0 mm 0.15 in3.8 mm
09:20 PM 91.2°F32.9°C 60.0°F15.6°C 35% Calm Calm 1.0 mph1.6 kmh 29.88 in1011.9 mb 0.00 in0.0 mm 0.00 in0.0 mm 0.15 in3.8 mm
09:30 PM 90.3°F32.4°C 60.0°F15.6°C 36% Calm Calm -- 29.88 in1011.9 mb 0.00 in0.0 mm 0.00 in0.0 mm 0.15 in3.8 mm
09:40 PM 89.9°F32.2°C 60.0°F15.6°C 37% Calm Calm 1.0 mph1.6 kmh 29.88 in1011.9 mb 0.00 in0.0 mm 0.00 in0.0 mm 0.15 in3.8 mm
09:50 PM 90.3°F32.4°C 61.0°F16.1°C 37% 0.5 mph S0.8 kmh S 3.0 mph4.8 kmh 29.89 in1012.2 mb 0.00 in0.0 mm 0.00 in0.0 mm 0.15 in3.8 mm
10:00 PM 90.6°F32.6°C 61.0°F16.1°C 37% 1.0 mph SW1.6 kmh SW 4.0 mph6.4 kmh 29.88 in1011.9 mb 0.00 in0.0 mm 0.00 in0.0 mm 0.15 in3.8 mm
10:10 PM 90.4°F32.4°C 61.0°F16.1°C 37% 0.6 mph SSW1.0 kmh SSW 3.0 mph4.8 kmh 29.88 in1011.9 mb 0.00 in0.0 mm 0.00 in0.0 mm 0.15 in3.8 mm
10:20 PM 90.1°F32.3°C 61.0°F16.1°C 38% 1.4 mph SSW2.3 kmh SSW 4.0 mph6.4 kmh 29.88 in1011.9 mb 0.00 in0.0 mm 0.00 in0.0 mm 0.15 in3.8 mm
10:30 PM 89.9°F32.2°C 60.0°F15.6°C 37% 1.3 mph SW2.1 kmh SW 4.0 mph6.4 kmh 29.88 in1011.9 mb 0.00 in0.0 mm 0.00 in0.0 mm 0.15 in3.8 mm
10:40 PM 89.4°F31.9°C 61.0°F16.1°C 39% 0.4 mph SE0.6 kmh SE 2.0 mph3.2 kmh 29.89 in1012.2 mb 0.00 in0.0 mm 0.00 in0.0 mm 0.15 in3.8 mm
10:50 PM 89.0°F31.7°C 61.0°F16.1°C 39% 1.0 mph SW1.6 kmh SW 3.0 mph4.8 kmh 29.89 in1012.2 mb 0.00 in0.0 mm 0.00 in0.0 mm 0.15 in3.8 mm
11:00 PM 88.7°F31.5°C 61.0°F16.1°C 40% 0.5 mph SSW0.8 kmh SSW 2.0 mph3.2 kmh 29.89 in1012.2 mb 0.00 in0.0 mm 0.00 in0.0 mm 0.15 in3.8 mm
11:10 PM 88.4°F31.3°C 62.0°F16.7°C 41% 0.3 mph SW0.5 kmh SW 3.0 mph4.8 kmh 29.88 in1011.9 mb 0.00 in0.0 mm 0.00 in0.0 mm 0.15 in3.8 mm
11:20 PM 88.2°F31.2°C 62.0°F16.7°C 41% 0.8 mph SE1.3 kmh SE 2.0 mph3.2 kmh 29.87 in1011.5 mb 0.00 in0.0 mm 0.00 in0.0 mm 0.15 in3.8 mm
11:30 PM 87.9°F31.1°C 61.0°F16.1°C 41% 0.1 mph SE0.2 kmh SE 1.0 mph1.6 kmh 29.87 in1011.5 mb 0.00 in0.0 mm 0.00 in0.0 mm 0.15 in3.8 mm
11:40 PM 87.6°F30.9°C 62.0°F16.7°C 42% Calm Calm 1.0 mph1.6 kmh 29.87 in1011.5 mb 0.00 in0.0 mm 0.00 in0.0 mm 0.15 in3.8 mm
11:50 PM 86.7°F30.4°C 62.0°F16.7°C 43% Calm Calm 1.0 mph1.6 kmh 29.87 in1011.5 mb 0.00 in0.0 mm 0.00 in0.0 mm 0.15 in3.8 mm